sensor_id;sensor_type;location;lat;lon;timestamp;P1;durP1;ratioP1;P2;durP2;ratioP2
71679;SDS011;59512;42.662;23.254;2023-05-07T00:00:52;10.13;;;6.63;;
71679;SDS011;59512;42.662;23.254;2023-05-07T00:03:18;11.33;;;7.03;;
71679;SDS011;59512;42.662;23.254;2023-05-07T00:05:45;12.57;;;7.03;;
71679;SDS011;59512;42.662;23.254;2023-05-07T00:08:11;13.27;;;7.97;;
71679;SDS011;59512;42.662;23.254;2023-05-07T00:10:36;13.63;;;9.37;;
71679;SDS011;59512;42.662;23.254;2023-05-07T00:13:02;12.23;;;8.13;;
71679;SDS011;59512;42.662;23.254;2023-05-07T00:15:27;14.00;;;8.20;;
71679;SDS011;59512;42.662;23.254;2023-05-07T00:17:53;13.00;;;8.67;;
71679;SDS011;59512;42.662;23.254;2023-05-07T00:20:27;12.00;;;7.60;;
71679;SDS011;59512;42.662;23.254;2023-05-07T00:22:53;11.25;;;7.18;;
71679;SDS011;59512;42.662;23.254;2023-05-07T00:25:18;11.83;;;7.33;;
71679;SDS011;59512;42.662;23.254;2023-05-07T00:27:44;9.85;;;7.38;;
71679;SDS011;59512;42.662;23.254;2023-05-07T00:30:10;14.77;;;8.07;;
71679;SDS011;59512;42.662;23.254;2023-05-07T00:32:36;14.10;;;8.88;;
71679;SDS011;59512;42.662;23.254;2023-05-07T00:35:02;12.13;;;7.67;;
71679;SDS011;59512;42.662;23.254;2023-05-07T00:37:28;11.43;;;7.63;;
71679;SDS011;59512;42.662;23.254;2023-05-07T00:39:53;12.87;;;7.90;;
71679;SDS011;59512;42.662;23.254;2023-05-07T00:42:19;13.70;;;8.63;;
71679;SDS011;59512;42.662;23.254;2023-05-07T00:44:44;12.47;;;8.10;;
71679;SDS011;59512;42.662;23.254;2023-05-07T00:47:10;11.83;;;8.30;;
71679;SDS011;59512;42.662;23.254;2023-05-07T00:49:39;10.83;;;8.10;;
71679;SDS011;59512;42.662;23.254;2023-05-07T00:52:07;14.88;;;9.52;;
71679;SDS011;59512;42.662;23.254;2023-05-07T00:54:33;12.70;;;7.95;;
71679;SDS011;59512;42.662;23.254;2023-05-07T00:56:59;13.20;;;8.23;;
71679;SDS011;59512;42.662;23.254;2023-05-07T00:59:25;12.00;;;7.97;;
71679;SDS011;59512;42.662;23.254;2023-05-07T01:01:51;12.23;;;7.20;;
71679;SDS011;59512;42.662;23.254;2023-05-07T01:04:17;13.27;;;8.55;;
71679;SDS011;59512;42.662;23.254;2023-05-07T01:06:42;14.43;;;8.87;;
71679;SDS011;59512;42.662;23.254;2023-05-07T01:09:09;13.97;;;8.00;;
71679;SDS011;59512;42.662;23.254;2023-05-07T01:11:34;13.30;;;8.25;;
71679;SDS011;59512;42.662;23.254;2023-05-07T01:14:00;12.67;;;8.47;;
71679;SDS011;59512;42.662;23.254;2023-05-07T01:16:25;11.37;;;8.20;;
71679;SDS011;59512;42.662;23.254;2023-05-07T01:18:51;12.43;;;9.20;;
71679;SDS011;59512;42.662;23.254;2023-05-07T01:21:17;12.63;;;8.40;;
71679;SDS011;59512;42.662;23.254;2023-05-07T01:23:43;12.98;;;8.43;;
71679;SDS011;59512;42.662;23.254;2023-05-07T01:26:10;14.82;;;9.35;;
71679;SDS011;59512;42.662;23.254;2023-05-07T01:28:35;11.63;;;8.97;;
71679;SDS011;59512;42.662;23.254;2023-05-07T01:31:01;14.77;;;9.30;;
71679;SDS011;59512;42.662;23.254;2023-05-07T01:33:29;13.85;;;8.90;;
71679;SDS011;59512;42.662;23.254;2023-05-07T01:35:56;15.13;;;8.73;;
71679;SDS011;59512;42.662;23.254;2023-05-07T01:38:23;13.60;;;8.30;;
71679;SDS011;59512;42.662;23.254;2023-05-07T01:40:49;13.63;;;9.45;;
71679;SDS011;59512;42.662;23.254;2023-05-07T01:43:14;14.00;;;9.40;;
71679;SDS011;59512;42.662;23.254;2023-05-07T01:45:40;13.15;;;9.48;;
71679;SDS011;59512;42.662;23.254;2023-05-07T01:48:06;13.50;;;9.93;;
71679;SDS011;59512;42.662;23.254;2023-05-07T01:50:32;15.02;;;9.88;;
71679;SDS011;59512;42.662;23.254;2023-05-07T01:52:58;13.52;;;9.48;;
71679;SDS011;59512;42.662;23.254;2023-05-07T01:55:24;14.57;;;9.70;;
71679;SDS011;59512;42.662;23.254;2023-05-07T01:57:50;13.60;;;8.40;;
71679;SDS011;59512;42.662;23.254;2023-05-07T02:00:15;14.13;;;9.50;;
71679;SDS011;59512;42.662;23.254;2023-05-07T02:02:41;17.50;;;9.13;;
71679;SDS011;59512;42.662;23.254;2023-05-07T02:05:06;14.23;;;9.73;;
71679;SDS011;59512;42.662;23.254;2023-05-07T02:07:32;13.35;;;8.90;;
71679;SDS011;59512;42.662;23.254;2023-05-07T02:09:57;16.10;;;9.33;;
71679;SDS011;59512;42.662;23.254;2023-05-07T02:12:23;14.67;;;8.87;;
71679;SDS011;59512;42.662;23.254;2023-05-07T02:14:49;13.65;;;9.52;;
71679;SDS011;59512;42.662;23.254;2023-05-07T02:17:14;15.40;;;9.50;;
71679;SDS011;59512;42.662;23.254;2023-05-07T02:19:40;13.85;;;9.25;;
71679;SDS011;59512;42.662;23.254;2023-05-07T02:22:05;13.07;;;8.80;;
71679;SDS011;59512;42.662;23.254;2023-05-07T02:24:31;16.02;;;10.65;;
71679;SDS011;59512;42.662;23.254;2023-05-07T02:26:56;14.10;;;9.70;;
71679;SDS011;59512;42.662;23.254;2023-05-07T02:29:22;16.23;;;9.57;;
71679;SDS011;59512;42.662;23.254;2023-05-07T02:31:47;14.00;;;9.30;;
71679;SDS011;59512;42.662;23.254;2023-05-07T02:34:17;17.52;;;11.10;;
71679;SDS011;59512;42.662;23.254;2023-05-07T02:36:43;16.20;;;9.98;;
71679;SDS011;59512;42.662;23.254;2023-05-07T02:39:08;16.27;;;10.10;;
71679;SDS011;59512;42.662;23.254;2023-05-07T02:41:34;14.43;;;9.80;;
71679;SDS011;59512;42.662;23.254;2023-05-07T02:43:59;15.53;;;10.07;;
71679;SDS011;59512;42.662;23.254;2023-05-07T02:46:25;14.73;;;10.33;;
71679;SDS011;59512;42.662;23.254;2023-05-07T02:48:50;14.53;;;10.37;;
71679;SDS011;59512;42.662;23.254;2023-05-07T02:51:17;13.23;;;9.73;;
71679;SDS011;59512;42.662;23.254;2023-05-07T02:53:45;16.05;;;11.18;;
71679;SDS011;59512;42.662;23.254;2023-05-07T02:56:11;14.00;;;10.05;;
71679;SDS011;59512;42.662;23.254;2023-05-07T02:58:36;13.33;;;10.00;;
71679;SDS011;59512;42.662;23.254;2023-05-07T03:01:01;14.47;;;9.57;;
71679;SDS011;59512;42.662;23.254;2023-05-07T03:03:27;14.02;;;9.55;;
71679;SDS011;59512;42.662;23.254;2023-05-07T03:05:52;15.17;;;10.43;;
71679;SDS011;59512;42.662;23.254;2023-05-07T03:08:18;14.47;;;9.87;;
71679;SDS011;59512;42.662;23.254;2023-05-07T03:10:43;16.37;;;10.00;;
71679;SDS011;59512;42.662;23.254;2023-05-07T03:13:09;15.23;;;10.63;;
71679;SDS011;59512;42.662;23.254;2023-05-07T03:15:34;13.45;;;9.73;;
71679;SDS011;59512;42.662;23.254;2023-05-07T03:18:00;14.83;;;10.43;;
71679;SDS011;59512;42.662;23.254;2023-05-07T03:20:25;13.70;;;10.00;;
71679;SDS011;59512;42.662;23.254;2023-05-07T03:22:50;14.83;;;9.40;;
71679;SDS011;59512;42.662;23.254;2023-05-07T03:25:16;15.90;;;10.60;;
71679;SDS011;59512;42.662;23.254;2023-05-07T03:27:41;15.65;;;11.45;;
71679;SDS011;59512;42.662;23.254;2023-05-07T03:30:07;17.73;;;11.67;;
71679;SDS011;59512;42.662;23.254;2023-05-07T03:32:33;16.65;;;11.25;;
71679;SDS011;59512;42.662;23.254;2023-05-07T03:35:00;15.20;;;11.87;;
71679;SDS011;59512;42.662;23.254;2023-05-07T03:37:25;16.55;;;11.70;;
71679;SDS011;59512;42.662;23.254;2023-05-07T03:39:51;16.13;;;12.63;;
71679;SDS011;59512;42.662;23.254;2023-05-07T03:42:16;17.50;;;11.53;;
71679;SDS011;59512;42.662;23.254;2023-05-07T03:44:42;18.03;;;12.07;;
71679;SDS011;59512;42.662;23.254;2023-05-07T03:47:07;18.95;;;12.40;;
71679;SDS011;59512;42.662;23.254;2023-05-07T03:49:32;17.17;;;12.03;;
71679;SDS011;59512;42.662;23.254;2023-05-07T03:51:58;18.83;;;13.00;;
71679;SDS011;59512;42.662;23.254;2023-05-07T03:54:23;18.20;;;13.57;;
71679;SDS011;59512;42.662;23.254;2023-05-07T03:56:49;17.48;;;12.30;;
71679;SDS011;59512;42.662;23.254;2023-05-07T03:59:14;19.33;;;13.07;;
71679;SDS011;59512;42.662;23.254;2023-05-07T04:01:40;15.90;;;11.43;;
71679;SDS011;59512;42.662;23.254;2023-05-07T04:04:05;15.17;;;11.43;;
71679;SDS011;59512;42.662;23.254;2023-05-07T04:06:31;22.10;;;11.77;;
71679;SDS011;59512;42.662;23.254;2023-05-07T04:08:57;18.52;;;10.45;;
71679;SDS011;59512;42.662;23.254;2023-05-07T04:11:22;13.88;;;9.40;;
71679;SDS011;59512;42.662;23.254;2023-05-07T04:13:48;13.80;;;8.63;;
71679;SDS011;59512;42.662;23.254;2023-05-07T04:16:13;13.23;;;9.87;;
71679;SDS011;59512;42.662;23.254;2023-05-07T04:18:39;13.83;;;9.17;;
71679;SDS011;59512;42.662;23.254;2023-05-07T04:21:04;13.03;;;9.27;;
71679;SDS011;59512;42.662;23.254;2023-05-07T04:23:30;14.95;;;9.77;;
71679;SDS011;59512;42.662;23.254;2023-05-07T04:25:55;13.60;;;9.60;;
71679;SDS011;59512;42.662;23.254;2023-05-07T04:28:22;13.65;;;9.73;;
71679;SDS011;59512;42.662;23.254;2023-05-07T04:30:49;16.48;;;9.90;;
71679;SDS011;59512;42.662;23.254;2023-05-07T04:33:14;15.37;;;9.23;;
71679;SDS011;59512;42.662;23.254;2023-05-07T04:35:43;15.45;;;9.00;;
71679;SDS011;59512;42.662;23.254;2023-05-07T04:38:08;15.27;;;9.17;;
71679;SDS011;59512;42.662;23.254;2023-05-07T04:40:35;12.77;;;8.60;;
71679;SDS011;59512;42.662;23.254;2023-05-07T04:43:01;12.55;;;9.00;;
71679;SDS011;59512;42.662;23.254;2023-05-07T04:45:26;15.23;;;9.67;;
71679;SDS011;59512;42.662;23.254;2023-05-07T04:47:51;12.93;;;9.57;;
71679;SDS011;59512;42.662;23.254;2023-05-07T04:50:17;15.20;;;10.03;;
71679;SDS011;59512;42.662;23.254;2023-05-07T04:52:44;17.63;;;10.07;;
71679;SDS011;59512;42.662;23.254;2023-05-07T04:55:10;13.60;;;9.80;;
71679;SDS011;59512;42.662;23.254;2023-05-07T04:57:35;15.43;;;10.38;;
71679;SDS011;59512;42.662;23.254;2023-05-07T05:00:01;15.60;;;10.23;;
71679;SDS011;59512;42.662;23.254;2023-05-07T05:02:28;15.50;;;11.05;;
71679;SDS011;59512;42.662;23.254;2023-05-07T05:04:53;16.67;;;11.50;;
71679;SDS011;59512;42.662;23.254;2023-05-07T05:07:18;17.23;;;12.23;;
71679;SDS011;59512;42.662;23.254;2023-05-07T05:09:44;18.73;;;12.30;;
71679;SDS011;59512;42.662;23.254;2023-05-07T05:12:09;17.05;;;12.45;;
71679;SDS011;59512;42.662;23.254;2023-05-07T05:14:35;15.67;;;11.03;;
71679;SDS011;59512;42.662;23.254;2023-05-07T05:17:00;19.10;;;12.27;;
71679;SDS011;59512;42.662;23.254;2023-05-07T05:19:26;16.07;;;11.37;;
71679;SDS011;59512;42.662;23.254;2023-05-07T05:21:51;17.37;;;12.00;;
71679;SDS011;59512;42.662;23.254;2023-05-07T05:24:17;16.48;;;11.82;;
71679;SDS011;59512;42.662;23.254;2023-05-07T05:26:42;16.87;;;12.00;;
71679;SDS011;59512;42.662;23.254;2023-05-07T05:29:08;15.82;;;12.18;;
71679;SDS011;59512;42.662;23.254;2023-05-07T05:31:33;18.07;;;12.03;;
71679;SDS011;59512;42.662;23.254;2023-05-07T05:33:59;16.63;;;12.17;;
71679;SDS011;59512;42.662;23.254;2023-05-07T05:36:25;18.88;;;12.45;;
71679;SDS011;59512;42.662;23.254;2023-05-07T05:38:50;16.97;;;12.10;;
71679;SDS011;59512;42.662;23.254;2023-05-07T05:41:16;16.33;;;12.10;;
71679;SDS011;59512;42.662;23.254;2023-05-07T05:43:41;18.10;;;11.50;;
71679;SDS011;59512;42.662;23.254;2023-05-07T05:46:06;17.65;;;10.95;;
71679;SDS011;59512;42.662;23.254;2023-05-07T05:48:33;15.83;;;11.63;;
71679;SDS011;59512;42.662;23.254;2023-05-07T05:50:59;16.02;;;10.90;;
71679;SDS011;59512;42.662;23.254;2023-05-07T05:53:25;14.63;;;11.07;;
71679;SDS011;59512;42.662;23.254;2023-05-07T05:55:50;18.83;;;11.53;;
71679;SDS011;59512;42.662;23.254;2023-05-07T05:58:16;16.70;;;11.48;;
71679;SDS011;59512;42.662;23.254;2023-05-07T06:00:42;13.93;;;10.82;;
71679;SDS011;59512;42.662;23.254;2023-05-07T06:03:07;17.77;;;11.40;;
71679;SDS011;59512;42.662;23.254;2023-05-07T06:05:32;16.33;;;10.37;;
71679;SDS011;59512;42.662;23.254;2023-05-07T06:07:58;15.30;;;10.63;;
71679;SDS011;59512;42.662;23.254;2023-05-07T06:10:23;16.53;;;11.47;;
71679;SDS011;59512;42.662;23.254;2023-05-07T06:12:49;14.55;;;11.10;;
71679;SDS011;59512;42.662;23.254;2023-05-07T06:15:14;16.23;;;10.63;;
71679;SDS011;59512;42.662;23.254;2023-05-07T06:17:40;16.43;;;11.37;;
71679;SDS011;59512;42.662;23.254;2023-05-07T06:20:05;15.87;;;10.47;;
71679;SDS011;59512;42.662;23.254;2023-05-07T06:22:31;15.85;;;10.73;;
71679;SDS011;59512;42.662;23.254;2023-05-07T06:24:57;14.50;;;10.60;;
71679;SDS011;59512;42.662;23.254;2023-05-07T06:27:22;16.35;;;11.00;;
71679;SDS011;59512;42.662;23.254;2023-05-07T06:29:48;17.30;;;10.73;;
71679;SDS011;59512;42.662;23.254;2023-05-07T06:32:13;16.00;;;10.07;;
71679;SDS011;59512;42.662;23.254;2023-05-07T06:34:39;14.73;;;10.17;;
71679;SDS011;59512;42.662;23.254;2023-05-07T06:37:04;16.08;;;10.40;;
71679;SDS011;59512;42.662;23.254;2023-05-07T06:39:30;15.80;;;10.30;;
71679;SDS011;59512;42.662;23.254;2023-05-07T06:41:56;15.90;;;9.77;;
71679;SDS011;59512;42.662;23.254;2023-05-07T06:44:22;15.73;;;9.52;;
71679;SDS011;59512;42.662;23.254;2023-05-07T06:46:47;14.70;;;9.73;;
71679;SDS011;59512;42.662;23.254;2023-05-07T06:49:13;12.50;;;9.27;;
71679;SDS011;59512;42.662;23.254;2023-05-07T06:51:39;14.80;;;9.75;;
71679;SDS011;59512;42.662;23.254;2023-05-07T06:54:04;13.10;;;9.40;;
71679;SDS011;59512;42.662;23.254;2023-05-07T06:56:30;16.00;;;10.00;;
71679;SDS011;59512;42.662;23.254;2023-05-07T06:58:56;13.40;;;9.43;;
71679;SDS011;59512;42.662;23.254;2023-05-07T07:01:21;13.03;;;9.03;;
71679;SDS011;59512;42.662;23.254;2023-05-07T07:03:47;12.07;;;8.40;;
71679;SDS011;59512;42.662;23.254;2023-05-07T07:06:12;11.67;;;8.00;;
71679;SDS011;59512;42.662;23.254;2023-05-07T07:08:38;11.70;;;8.63;;
71679;SDS011;59512;42.662;23.254;2023-05-07T07:11:04;12.10;;;9.03;;
71679;SDS011;59512;42.662;23.254;2023-05-07T07:13:30;15.38;;;8.88;;
71679;SDS011;59512;42.662;23.254;2023-05-07T07:15:55;14.05;;;8.18;;
71679;SDS011;59512;42.662;23.254;2023-05-07T07:18:21;12.57;;;8.67;;
71679;SDS011;59512;42.662;23.254;2023-05-07T07:20:46;11.77;;;8.20;;
71679;SDS011;59512;42.662;23.254;2023-05-07T07:23:12;12.15;;;8.20;;
71679;SDS011;59512;42.662;23.254;2023-05-07T07:25:37;12.20;;;8.33;;
71679;SDS011;59512;42.662;23.254;2023-05-07T07:28:03;13.73;;;8.30;;
71679;SDS011;59512;42.662;23.254;2023-05-07T07:30:28;12.50;;;8.80;;
71679;SDS011;59512;42.662;23.254;2023-05-07T07:32:54;13.47;;;8.23;;
71679;SDS011;59512;42.662;23.254;2023-05-07T07:35:20;11.82;;;8.20;;
71679;SDS011;59512;42.662;23.254;2023-05-07T07:37:45;12.63;;;8.10;;
71679;SDS011;59512;42.662;23.254;2023-05-07T07:40:11;11.77;;;8.18;;
71679;SDS011;59512;42.662;23.254;2023-05-07T07:42:37;13.48;;;8.02;;
71679;SDS011;59512;42.662;23.254;2023-05-07T07:45:02;12.47;;;8.60;;
71679;SDS011;59512;42.662;23.254;2023-05-07T07:47:28;12.32;;;7.82;;
71679;SDS011;59512;42.662;23.254;2023-05-07T07:49:54;11.85;;;7.78;;
71679;SDS011;59512;42.662;23.254;2023-05-07T07:52:19;13.93;;;8.37;;
71679;SDS011;59512;42.662;23.254;2023-05-07T07:54:45;12.93;;;8.53;;
71679;SDS011;59512;42.662;23.254;2023-05-07T07:57:10;11.40;;;8.00;;
71679;SDS011;59512;42.662;23.254;2023-05-07T07:59:35;12.65;;;8.02;;
71679;SDS011;59512;42.662;23.254;2023-05-07T08:02:01;11.97;;;7.63;;
71679;SDS011;59512;42.662;23.254;2023-05-07T08:04:26;13.07;;;6.90;;
71679;SDS011;59512;42.662;23.254;2023-05-07T08:06:52;12.70;;;7.93;;
71679;SDS011;59512;42.662;23.254;2023-05-07T08:09:19;13.15;;;8.05;;
71679;SDS011;59512;42.662;23.254;2023-05-07T08:11:44;11.57;;;7.93;;
71679;SDS011;59512;42.662;23.254;2023-05-07T08:14:10;12.87;;;7.87;;
71679;SDS011;59512;42.662;23.254;2023-05-07T08:16:36;13.32;;;8.00;;
71679;SDS011;59512;42.662;23.254;2023-05-07T08:19:01;14.20;;;8.60;;
71679;SDS011;59512;42.662;23.254;2023-05-07T08:21:27;12.50;;;8.48;;
71679;SDS011;59512;42.662;23.254;2023-05-07T08:23:52;18.00;;;13.47;;
71679;SDS011;59512;42.662;23.254;2023-05-07T08:26:18;14.03;;;8.13;;
71679;SDS011;59512;42.662;23.254;2023-05-07T08:28:43;12.77;;;8.00;;
71679;SDS011;59512;42.662;23.254;2023-05-07T08:31:09;14.35;;;8.20;;
71679;SDS011;59512;42.662;23.254;2023-05-07T08:33:34;12.07;;;7.23;;
71679;SDS011;59512;42.662;23.254;2023-05-07T08:35:59;11.00;;;7.37;;
71679;SDS011;59512;42.662;23.254;2023-05-07T08:38:25;12.50;;;7.07;;
71679;SDS011;59512;42.662;23.254;2023-05-07T08:40:50;11.97;;;6.80;;
71679;SDS011;59512;42.662;23.254;2023-05-07T08:43:16;11.40;;;6.78;;
71679;SDS011;59512;42.662;23.254;2023-05-07T08:45:42;12.37;;;6.73;;
71679;SDS011;59512;42.662;23.254;2023-05-07T08:48:19;13.80;;;7.97;;
71679;SDS011;59512;42.662;23.254;2023-05-07T08:50:47;11.20;;;7.05;;
71679;SDS011;59512;42.662;23.254;2023-05-07T08:53:13;10.07;;;6.70;;
71679;SDS011;59512;42.662;23.254;2023-05-07T08:55:38;18.80;;;7.70;;
71679;SDS011;59512;42.662;23.254;2023-05-07T08:58:04;11.80;;;6.80;;
71679;SDS011;59512;42.662;23.254;2023-05-07T09:00:30;11.77;;;6.70;;
71679;SDS011;59512;42.662;23.254;2023-05-07T09:02:55;10.60;;;7.03;;
71679;SDS011;59512;42.662;23.254;2023-05-07T09:05:20;10.37;;;6.83;;
71679;SDS011;59512;42.662;23.254;2023-05-07T09:07:46;11.70;;;6.10;;
71679;SDS011;59512;42.662;23.254;2023-05-07T09:10:12;24.00;;;17.08;;
71679;SDS011;59512;42.662;23.254;2023-05-07T09:12:37;13.73;;;8.07;;
71679;SDS011;59512;42.662;23.254;2023-05-07T09:15:04;13.32;;;7.32;;
71679;SDS011;59512;42.662;23.254;2023-05-07T09:17:30;11.77;;;7.00;;
71679;SDS011;59512;42.662;23.254;2023-05-07T09:19:56;10.10;;;6.50;;
71679;SDS011;59512;42.662;23.254;2023-05-07T09:22:21;10.90;;;7.00;;
71679;SDS011;59512;42.662;23.254;2023-05-07T09:24:47;10.50;;;5.60;;
71679;SDS011;59512;42.662;23.254;2023-05-07T09:27:14;9.18;;;5.32;;
71679;SDS011;59512;42.662;23.254;2023-05-07T09:29:39;10.10;;;5.43;;
71679;SDS011;59512;42.662;23.254;2023-05-07T09:32:05;8.63;;;5.90;;
71679;SDS011;59512;42.662;23.254;2023-05-07T09:34:31;8.83;;;5.67;;
71679;SDS011;59512;42.662;23.254;2023-05-07T09:37:02;9.63;;;5.70;;
71679;SDS011;59512;42.662;23.254;2023-05-07T09:39:43;8.73;;;4.97;;
71679;SDS011;59512;42.662;23.254;2023-05-07T09:42:10;9.87;;;4.87;;
71679;SDS011;59512;42.662;23.254;2023-05-07T09:44:36;11.18;;;5.00;;
71679;SDS011;59512;42.662;23.254;2023-05-07T09:47:06;10.70;;;5.75;;
71679;SDS011;59512;42.662;23.254;2023-05-07T09:49:33;11.15;;;5.90;;
71679;SDS011;59512;42.662;23.254;2023-05-07T09:52:01;9.30;;;4.95;;
71679;SDS011;59512;42.662;23.254;2023-05-07T09:54:31;11.27;;;5.70;;
71679;SDS011;59512;42.662;23.254;2023-05-07T09:56:57;7.43;;;5.05;;
71679;SDS011;59512;42.662;23.254;2023-05-07T09:59:23;7.65;;;5.18;;
71679;SDS011;59512;42.662;23.254;2023-05-07T10:01:49;8.35;;;5.22;;
71679;SDS011;59512;42.662;23.254;2023-05-07T10:04:16;8.30;;;5.40;;
71679;SDS011;59512;42.662;23.254;2023-05-07T10:06:41;9.88;;;5.40;;
71679;SDS011;59512;42.662;23.254;2023-05-07T10:09:08;9.27;;;5.15;;
71679;SDS011;59512;42.662;23.254;2023-05-07T10:11:34;9.38;;;4.53;;
71679;SDS011;59512;42.662;23.254;2023-05-07T10:14:01;9.57;;;5.20;;
71679;SDS011;59512;42.662;23.254;2023-05-07T10:16:32;8.50;;;4.45;;
71679;SDS011;59512;42.662;23.254;2023-05-07T10:19:04;8.98;;;4.78;;
71679;SDS011;59512;42.662;23.254;2023-05-07T10:21:30;8.70;;;4.65;;
71679;SDS011;59512;42.662;23.254;2023-05-07T10:23:59;9.10;;;4.73;;
71679;SDS011;59512;42.662;23.254;2023-05-07T10:26:31;8.93;;;4.00;;
71679;SDS011;59512;42.662;23.254;2023-05-07T10:28:58;7.95;;;3.92;;
71679;SDS011;59512;42.662;23.254;2023-05-07T10:34:29;7.85;;;4.05;;
71679;SDS011;59512;42.662;23.254;2023-05-07T10:36:59;8.37;;;4.00;;
71679;SDS011;59512;42.662;23.254;2023-05-07T10:39:25;8.30;;;3.97;;
71679;SDS011;59512;42.662;23.254;2023-05-07T10:41:50;9.17;;;3.87;;
71679;SDS011;59512;42.662;23.254;2023-05-07T10:44:25;6.05;;;3.95;;
71679;SDS011;59512;42.662;23.254;2023-05-07T10:47:08;10.17;;;4.63;;
71679;SDS011;59512;42.662;23.254;2023-05-07T10:52:10;8.43;;;4.60;;
71679;SDS011;59512;42.662;23.254;2023-05-07T10:54:38;8.02;;;4.32;;
71679;SDS011;59512;42.662;23.254;2023-05-07T10:57:49;8.10;;;4.30;;
71679;SDS011;59512;42.662;23.254;2023-05-07T11:00:04;8.00;;;4.40;;
71679;SDS011;59512;42.662;23.254;2023-05-07T11:05:28;9.23;;;4.53;;
71679;SDS011;59512;42.662;23.254;2023-05-07T11:07:54;7.95;;;4.55;;
71679;SDS011;59512;42.662;23.254;2023-05-07T11:13:14;6.85;;;4.45;;
71679;SDS011;59512;42.662;23.254;2023-05-07T11:15:41;8.02;;;4.30;;
71679;SDS011;59512;42.662;23.254;2023-05-07T11:18:09;7.00;;;4.05;;
71679;SDS011;59512;42.662;23.254;2023-05-07T11:23:54;8.45;;;4.13;;
71679;SDS011;59512;42.662;23.254;2023-05-07T11:26:14;8.73;;;4.07;;
71679;SDS011;59512;42.662;23.254;2023-05-07T11:28:41;8.38;;;4.00;;
71679;SDS011;59512;42.662;23.254;2023-05-07T11:31:08;7.90;;;4.28;;
71679;SDS011;59512;42.662;23.254;2023-05-07T11:33:34;7.35;;;3.75;;
71679;SDS011;59512;42.662;23.254;2023-05-07T11:36:00;6.93;;;3.70;;
71679;SDS011;59512;42.662;23.254;2023-05-07T11:38:26;6.60;;;3.67;;
71679;SDS011;59512;42.662;23.254;2023-05-07T11:40:52;8.70;;;3.77;;
71679;SDS011;59512;42.662;23.254;2023-05-07T11:43:20;7.35;;;4.03;;
71679;SDS011;59512;42.662;23.254;2023-05-07T11:45:45;10.30;;;4.65;;
71679;SDS011;59512;42.662;23.254;2023-05-07T11:48:14;7.50;;;4.10;;
71679;SDS011;59512;42.662;23.254;2023-05-07T11:51:02;8.52;;;5.10;;
71679;SDS011;59512;42.662;23.254;2023-05-07T11:53:35;6.88;;;3.83;;
71679;SDS011;59512;42.662;23.254;2023-05-07T11:56:10;8.60;;;4.07;;
71679;SDS011;59512;42.662;23.254;2023-05-07T11:58:36;8.13;;;4.00;;
71679;SDS011;59512;42.662;23.254;2023-05-07T12:01:02;9.27;;;4.00;;
71679;SDS011;59512;42.662;23.254;2023-05-07T12:03:28;8.95;;;3.75;;
71679;SDS011;59512;42.662;23.254;2023-05-07T12:05:53;6.80;;;4.00;;
71679;SDS011;59512;42.662;23.254;2023-05-07T12:08:19;7.63;;;4.40;;
71679;SDS011;59512;42.662;23.254;2023-05-07T12:10:47;10.15;;;4.22;;
71679;SDS011;59512;42.662;23.254;2023-05-07T12:15:46;6.72;;;3.70;;
71679;SDS011;59512;42.662;23.254;2023-05-07T12:18:15;8.13;;;3.80;;
71679;SDS011;59512;42.662;23.254;2023-05-07T12:20:41;8.45;;;4.15;;
71679;SDS011;59512;42.662;23.254;2023-05-07T12:23:07;7.80;;;3.73;;
71679;SDS011;59512;42.662;23.254;2023-05-07T12:25:35;7.35;;;3.90;;
71679;SDS011;59512;42.662;23.254;2023-05-07T12:28:05;10.13;;;4.07;;
71679;SDS011;59512;42.662;23.254;2023-05-07T12:30:37;7.32;;;4.05;;
71679;SDS011;59512;42.662;23.254;2023-05-07T12:33:03;8.98;;;4.35;;
71679;SDS011;59512;42.662;23.254;2023-05-07T12:35:29;7.43;;;4.03;;
71679;SDS011;59512;42.662;23.254;2023-05-07T12:37:58;7.35;;;3.90;;
71679;SDS011;59512;42.662;23.254;2023-05-07T12:40:34;6.38;;;3.63;;
71679;SDS011;59512;42.662;23.254;2023-05-07T12:43:04;7.95;;;3.50;;
71679;SDS011;59512;42.662;23.254;2023-05-07T12:45:29;6.00;;;3.63;;
71679;SDS011;59512;42.662;23.254;2023-05-07T12:47:55;6.53;;;3.50;;
71679;SDS011;59512;42.662;23.254;2023-05-07T12:50:20;9.93;;;3.45;;
71679;SDS011;59512;42.662;23.254;2023-05-07T12:52:48;7.28;;;3.83;;
71679;SDS011;59512;42.662;23.254;2023-05-07T12:55:14;5.90;;;3.50;;
71679;SDS011;59512;42.662;23.254;2023-05-07T12:57:45;6.05;;;3.53;;
71679;SDS011;59512;42.662;23.254;2023-05-07T13:00:13;10.27;;;3.97;;
71679;SDS011;59512;42.662;23.254;2023-05-07T13:02:39;10.43;;;4.20;;
71679;SDS011;59512;42.662;23.254;2023-05-07T13:05:07;6.47;;;3.50;;
71679;SDS011;59512;42.662;23.254;2023-05-07T13:07:33;6.32;;;3.38;;
71679;SDS011;59512;42.662;23.254;2023-05-07T13:09:59;6.05;;;3.40;;
71679;SDS011;59512;42.662;23.254;2023-05-07T13:12:24;7.25;;;3.70;;
71679;SDS011;59512;42.662;23.254;2023-05-07T13:14:50;6.57;;;3.40;;
71679;SDS011;59512;42.662;23.254;2023-05-07T13:17:15;6.03;;;3.40;;
71679;SDS011;59512;42.662;23.254;2023-05-07T13:19:40;6.23;;;3.33;;
71679;SDS011;59512;42.662;23.254;2023-05-07T13:22:06;6.10;;;3.00;;
71679;SDS011;59512;42.662;23.254;2023-05-07T13:24:31;6.82;;;3.30;;
71679;SDS011;59512;42.662;23.254;2023-05-07T13:26:57;5.90;;;3.53;;
71679;SDS011;59512;42.662;23.254;2023-05-07T13:29:22;6.47;;;3.27;;
71679;SDS011;59512;42.662;23.254;2023-05-07T13:31:54;8.02;;;3.35;;
71679;SDS011;59512;42.662;23.254;2023-05-07T13:34:19;5.95;;;3.55;;
71679;SDS011;59512;42.662;23.254;2023-05-07T13:36:45;8.70;;;3.87;;
71679;SDS011;59512;42.662;23.254;2023-05-07T13:39:10;5.30;;;3.20;;
71679;SDS011;59512;42.662;23.254;2023-05-07T13:41:36;7.35;;;3.40;;
71679;SDS011;59512;42.662;23.254;2023-05-07T13:44:01;6.37;;;3.20;;
71679;SDS011;59512;42.662;23.254;2023-05-07T13:46:27;9.30;;;3.53;;
71679;SDS011;59512;42.662;23.254;2023-05-07T13:48:52;6.20;;;3.33;;
71679;SDS011;59512;42.662;23.254;2023-05-07T13:51:17;7.00;;;3.40;;
71679;SDS011;59512;42.662;23.254;2023-05-07T13:53:43;6.78;;;3.28;;
71679;SDS011;59512;42.662;23.254;2023-05-07T13:56:08;7.63;;;3.30;;
71679;SDS011;59512;42.662;23.254;2023-05-07T13:58:34;7.83;;;3.30;;
71679;SDS011;59512;42.662;23.254;2023-05-07T14:01:01;7.43;;;3.28;;
71679;SDS011;59512;42.662;23.254;2023-05-07T14:03:26;8.53;;;3.03;;
71679;SDS011;59512;42.662;23.254;2023-05-07T14:05:52;5.97;;;3.20;;
71679;SDS011;59512;42.662;23.254;2023-05-07T14:08:17;7.60;;;3.53;;
71679;SDS011;59512;42.662;23.254;2023-05-07T14:10:45;6.60;;;3.33;;
71679;SDS011;59512;42.662;23.254;2023-05-07T14:13:11;5.80;;;3.10;;
71679;SDS011;59512;42.662;23.254;2023-05-07T14:15:36;6.22;;;3.50;;
71679;SDS011;59512;42.662;23.254;2023-05-07T14:18:02;6.70;;;3.70;;
71679;SDS011;59512;42.662;23.254;2023-05-07T14:20:28;8.80;;;3.38;;
71679;SDS011;59512;42.662;23.254;2023-05-07T14:22:55;5.85;;;3.60;;
71679;SDS011;59512;42.662;23.254;2023-05-07T14:25:20;6.60;;;3.40;;
71679;SDS011;59512;42.662;23.254;2023-05-07T14:27:46;6.40;;;3.40;;
71679;SDS011;59512;42.662;23.254;2023-05-07T14:30:12;8.57;;;3.63;;
71679;SDS011;59512;42.662;23.254;2023-05-07T14:32:37;7.63;;;3.20;;
71679;SDS011;59512;42.662;23.254;2023-05-07T14:35:03;5.70;;;3.10;;